sensor_id;sensor_type;location;lat;lon;timestamp;pressure;altitude;pressure_sealevel;temperature;humidity
4814;BME280;15375;48.540;9.268;2023-02-12T00:02:06;99270.34;;;3.80;100.00
4814;BME280;15375;48.540;9.268;2023-02-12T00:04:32;99290.81;;;3.90;100.00
4814;BME280;15375;48.540;9.268;2023-02-12T00:06:58;99278.41;;;3.89;100.00
4814;BME280;15375;48.540;9.268;2023-02-12T00:09:23;99279.34;;;3.93;100.00
4814;BME280;15375;48.540;9.268;2023-02-12T00:11:49;99268.63;;;3.76;100.00
4814;BME280;15375;48.540;9.268;2023-02-12T00:14:14;99268.53;;;3.72;100.00
4814;BME280;15375;48.540;9.268;2023-02-12T00:16:39;99274.84;;;3.76;100.00
4814;BME280;15375;48.540;9.268;2023-02-12T00:19:05;99275.16;;;3.75;100.00
4814;BME280;15375;48.540;9.268;2023-02-12T00:21:30;99293.88;;;3.80;100.00
4814;BME280;15375;48.540;9.268;2023-02-12T00:23:56;99274.69;;;3.73;100.00
4814;BME280;15375;48.540;9.268;2023-02-12T00:26:21;99289.41;;;3.84;100.00
4814;BME280;15375;48.540;9.268;2023-02-12T00:28:47;99265.94;;;3.76;100.00
4814;BME280;15375;48.540;9.268;2023-02-12T00:31:16;99275.44;;;3.82;100.00
4814;BME280;15375;48.540;9.268;2023-02-12T00:33:42;99292.19;;;3.96;100.00
4814;BME280;15375;48.540;9.268;2023-02-12T00:36:08;99295.06;;;3.91;100.00
4814;BME280;15375;48.540;9.268;2023-02-12T00:38:37;99291.50;;;3.78;100.00
4814;BME280;15375;48.540;9.268;2023-02-12T00:41:02;99307.19;;;3.85;100.00
4814;BME280;15375;48.540;9.268;2023-02-12T00:43:28;99300.78;;;3.60;100.00
4814;BME280;15375;48.540;9.268;2023-02-12T00:45:53;99290.84;;;3.44;100.00
4814;BME280;15375;48.540;9.268;2023-02-12T00:48:18;99283.75;;;3.31;100.00
4814;BME280;15375;48.540;9.268;2023-02-12T00:50:45;99291.19;;;3.42;100.00
4814;BME280;15375;48.540;9.268;2023-02-12T00:53:11;99301.47;;;3.49;100.00
4814;BME280;15375;48.540;9.268;2023-02-12T00:55:37;99293.09;;;3.33;100.00
4814;BME280;15375;48.540;9.268;2023-02-12T00:58:02;99300.56;;;3.36;100.00
4814;BME280;15375;48.540;9.268;2023-02-12T01:00:28;99301.97;;;3.42;100.00
4814;BME280;15375;48.540;9.268;2023-02-12T01:02:53;99310.66;;;3.48;100.00
4814;BME280;15375;48.540;9.268;2023-02-12T01:05:19;99303.69;;;3.47;100.00
4814;BME280;15375;48.540;9.268;2023-02-12T01:07:52;99314.44;;;3.55;100.00
4814;BME280;15375;48.540;9.268;2023-02-12T01:10:18;99312.97;;;3.66;100.00
4814;BME280;15375;48.540;9.268;2023-02-12T01:12:47;99316.97;;;3.60;100.00
4814;BME280;15375;48.540;9.268;2023-02-12T01:15:14;99311.91;;;3.50;100.00
4814;BME280;15375;48.540;9.268;2023-02-12T01:17:39;99316.03;;;3.56;100.00
4814;BME280;15375;48.540;9.268;2023-02-12T01:20:06;99315.41;;;3.59;100.00
4814;BME280;15375;48.540;9.268;2023-02-12T01:22:36;99311.72;;;3.64;100.00
4814;BME280;15375;48.540;9.268;2023-02-12T01:25:03;99313.44;;;3.68;100.00
4814;BME280;15375;48.540;9.268;2023-02-12T01:27:29;99313.31;;;3.65;100.00
4814;BME280;15375;48.540;9.268;2023-02-12T01:29:54;99297.47;;;3.55;100.00
4814;BME280;15375;48.540;9.268;2023-02-12T01:32:20;99290.03;;;3.52;100.00
4814;BME280;15375;48.540;9.268;2023-02-12T01:34:45;99311.75;;;3.55;100.00
4814;BME280;15375;48.540;9.268;2023-02-12T01:37:10;99291.00;;;3.47;100.00
4814;BME280;15375;48.540;9.268;2023-02-12T01:39:36;99288.94;;;3.44;100.00
4814;BME280;15375;48.540;9.268;2023-02-12T01:42:03;99316.66;;;3.62;100.00
4814;BME280;15375;48.540;9.268;2023-02-12T01:44:31;99321.88;;;3.67;100.00
4814;BME280;15375;48.540;9.268;2023-02-12T01:46:59;99320.28;;;3.66;100.00
4814;BME280;15375;48.540;9.268;2023-02-12T01:52:03;99315.41;;;3.59;100.00
4814;BME280;15375;48.540;9.268;2023-02-12T01:54:30;99290.66;;;3.49;100.00
4814;BME280;15375;48.540;9.268;2023-02-12T01:56:59;99313.31;;;3.65;100.00
4814;BME280;15375;48.540;9.268;2023-02-12T01:59:25;99309.00;;;3.72;100.00
4814;BME280;15375;48.540;9.268;2023-02-12T02:01:50;99307.56;;;3.75;100.00
4814;BME280;15375;48.540;9.268;2023-02-12T02:04:19;99299.16;;;3.68;100.00
4814;BME280;15375;48.540;9.268;2023-02-12T02:07:03;99279.34;;;3.64;100.00
4814;BME280;15375;48.540;9.268;2023-02-12T02:09:30;99294.72;;;3.72;100.00
4814;BME280;15375;48.540;9.268;2023-02-12T02:11:57;99287.91;;;3.66;100.00
4814;BME280;15375;48.540;9.268;2023-02-12T02:14:42;99286.69;;;3.55;100.00
4814;BME280;15375;48.540;9.268;2023-02-12T02:23:05;99295.88;;;3.54;100.00
4814;BME280;15375;48.540;9.268;2023-02-12T02:25:56;99295.25;;;3.57;100.00
4814;BME280;15375;48.540;9.268;2023-02-12T02:36:34;99280.06;;;3.44;100.00
4814;BME280;15375;48.540;9.268;2023-02-12T02:39:32;99275.13;;;3.46;100.00
4814;BME280;15375;48.540;9.268;2023-02-12T02:42:07;99281.13;;;3.60;100.00
4814;BME280;15375;48.540;9.268;2023-02-12T02:44:36;99272.34;;;3.63;100.00
4814;BME280;15375;48.540;9.268;2023-02-12T02:47:08;99275.22;;;3.58;100.00
4814;BME280;15375;48.540;9.268;2023-02-12T02:49:41;99258.75;;;3.51;100.00
4814;BME280;15375;48.540;9.268;2023-02-12T02:52:13;99232.50;;;3.31;100.00
4814;BME280;15375;48.540;9.268;2023-02-12T02:54:44;99257.38;;;3.45;100.00
4814;BME280;15375;48.540;9.268;2023-02-12T02:57:16;99262.06;;;3.56;100.00
4814;BME280;15375;48.540;9.268;2023-02-12T02:59:46;99277.09;;;3.66;100.00
4814;BME280;15375;48.540;9.268;2023-02-12T03:02:35;99265.06;;;3.63;100.00
4814;BME280;15375;48.540;9.268;2023-02-12T03:05:11;99278.19;;;3.73;100.00
4814;BME280;15375;48.540;9.268;2023-02-12T03:08:45;99277.38;;;3.73;100.00
4814;BME280;15375;48.540;9.268;2023-02-12T03:10:46;99271.44;;;3.59;100.00
4814;BME280;15375;48.540;9.268;2023-02-12T03:13:28;99272.13;;;3.47;100.00
4814;BME280;15375;48.540;9.268;2023-02-12T03:16:04;99271.59;;;3.54;100.00
4814;BME280;15375;48.540;9.268;2023-02-12T03:18:36;99281.75;;;3.57;100.00
4814;BME280;15375;48.540;9.268;2023-02-12T03:21:11;99275.22;;;3.58;100.00
4814;BME280;15375;48.540;9.268;2023-02-12T03:23:51;99275.84;;;3.63;100.00
4814;BME280;15375;48.540;9.268;2023-02-12T03:26:48;99277.75;;;3.63;100.00
4814;BME280;15375;48.540;9.268;2023-02-12T03:29:12;99281.66;;;3.45;100.00
4814;BME280;15375;48.540;9.268;2023-02-12T03:34:26;99262.00;;;3.36;100.00
4814;BME280;15375;48.540;9.268;2023-02-12T03:39:48;99288.72;;;3.58;100.00
4814;BME280;15375;48.540;9.268;2023-02-12T03:50:27;99264.88;;;3.31;100.00
4814;BME280;15375;48.540;9.268;2023-02-12T03:52:56;99268.03;;;3.33;100.00
4814;BME280;15375;48.540;9.268;2023-02-12T03:55:21;99289.28;;;3.34;100.00
4814;BME280;15375;48.540;9.268;2023-02-12T03:57:54;99280.06;;;3.35;100.00
4814;BME280;15375;48.540;9.268;2023-02-12T04:00:24;99282.31;;;3.33;100.00
4814;BME280;15375;48.540;9.268;2023-02-12T04:02:50;99273.28;;;3.29;100.00
4814;BME280;15375;48.540;9.268;2023-02-12T04:05:26;99283.84;;;3.43;100.00
4814;BME280;15375;48.540;9.268;2023-02-12T04:07:53;99293.38;;;3.49;100.00
4814;BME280;15375;48.540;9.268;2023-02-12T04:10:30;99273.41;;;3.33;100.00
4814;BME280;15375;48.540;9.268;2023-02-12T04:13:18;99284.69;;;3.35;100.00
4814;BME280;15375;48.540;9.268;2023-02-12T04:16:15;99300.66;;;3.48;100.00
4814;BME280;15375;48.540;9.268;2023-02-12T04:18:44;99295.44;;;3.52;100.00
4814;BME280;15375;48.540;9.268;2023-02-12T04:26:41;99311.19;;;3.33;100.00
4814;BME280;15375;48.540;9.268;2023-02-12T04:29:38;99319.09;;;3.38;100.00
4814;BME280;15375;48.540;9.268;2023-02-12T04:32:11;99305.16;;;3.36;100.00
4814;BME280;15375;48.540;9.268;2023-02-12T04:34:52;99301.97;;;3.34;100.00
4814;BME280;15375;48.540;9.268;2023-02-12T04:37:22;99303.06;;;3.41;100.00
4814;BME280;15375;48.540;9.268;2023-02-12T04:39:50;99305.31;;;3.39;100.00
4814;BME280;15375;48.540;9.268;2023-02-12T04:42:17;99291.19;;;3.34;100.00
4814;BME280;15375;48.540;9.268;2023-02-12T04:44:43;99305.13;;;3.44;100.00
4814;BME280;15375;48.540;9.268;2023-02-12T04:47:11;99311.97;;;3.42;100.00
4814;BME280;15375;48.540;9.268;2023-02-12T04:49:37;99301.53;;;3.32;100.00
4814;BME280;15375;48.540;9.268;2023-02-12T04:52:03;99307.66;;;3.41;100.00
4814;BME280;15375;48.540;9.268;2023-02-12T04:54:28;99295.78;;;3.42;100.00
4814;BME280;15375;48.540;9.268;2023-02-12T04:56:53;99292.09;;;3.46;100.00
4814;BME280;15375;48.540;9.268;2023-02-12T04:59:19;99301.13;;;3.50;100.00
4814;BME280;15375;48.540;9.268;2023-02-12T05:01:44;99293.56;;;3.35;100.00
4814;BME280;15375;48.540;9.268;2023-02-12T05:04:14;99302.91;;;3.46;100.00
4814;BME280;15375;48.540;9.268;2023-02-12T05:06:40;99308.59;;;3.53;100.00
4814;BME280;15375;48.540;9.268;2023-02-12T05:09:07;99304.16;;;3.49;100.00
4814;BME280;15375;48.540;9.268;2023-02-12T05:11:34;99290.72;;;3.32;100.00
4814;BME280;15375;48.540;9.268;2023-02-12T05:13:59;99302.28;;;3.41;100.00
4814;BME280;15375;48.540;9.268;2023-02-12T05:16:25;99297.69;;;3.41;100.00
4814;BME280;15375;48.540;9.268;2023-02-12T05:18:50;99286.72;;;3.38;100.00
4814;BME280;15375;48.540;9.268;2023-02-12T05:21:16;99302.72;;;3.51;100.00
4814;BME280;15375;48.540;9.268;2023-02-12T05:23:42;99302.09;;;3.54;100.00
4814;BME280;15375;48.540;9.268;2023-02-12T05:26:13;99304.13;;;3.57;100.00
4814;BME280;15375;48.540;9.268;2023-02-12T05:28:38;99301.75;;;3.56;100.00
4814;BME280;15375;48.540;9.268;2023-02-12T05:31:06;99310.97;;;3.55;100.00
4814;BME280;15375;48.540;9.268;2023-02-12T05:33:33;99308.75;;;3.57;100.00
4814;BME280;15375;48.540;9.268;2023-02-12T05:36:19;99306.84;;;3.57;100.00
4814;BME280;15375;48.540;9.268;2023-02-12T05:38:45;99297.97;;;3.48;100.00
4814;BME280;15375;48.540;9.268;2023-02-12T05:41:13;99305.94;;;3.45;100.00
4814;BME280;15375;48.540;9.268;2023-02-12T05:43:39;99294.34;;;3.36;100.00
4814;BME280;15375;48.540;9.268;2023-02-12T05:46:05;99309.75;;;3.35;100.00
4814;BME280;15375;48.540;9.268;2023-02-12T05:48:31;99316.09;;;3.39;100.00
4814;BME280;15375;48.540;9.268;2023-02-12T05:51:12;99304.06;;;3.28;100.00
4814;BME280;15375;48.540;9.268;2023-02-12T05:53:39;99310.72;;;3.31;100.00
4814;BME280;15375;48.540;9.268;2023-02-12T05:56:16;99294.06;;;3.20;100.00
4814;BME280;15375;48.540;9.268;2023-02-12T05:58:45;99310.06;;;3.34;100.00
4814;BME280;15375;48.540;9.268;2023-02-12T06:01:19;99313.25;;;3.36;100.00
4814;BME280;15375;48.540;9.268;2023-02-12T06:03:45;99293.44;;;3.23;100.00
4814;BME280;15375;48.540;9.268;2023-02-12T06:06:11;99296.31;;;3.18;100.00
4814;BME280;15375;48.540;9.268;2023-02-12T06:08:37;99299.00;;;3.18;100.00
4814;BME280;15375;48.540;9.268;2023-02-12T06:11:05;99303.78;;;3.12;100.00
4814;BME280;15375;48.540;9.268;2023-02-12T06:13:31;99302.38;;;2.98;100.00
4814;BME280;15375;48.540;9.268;2023-02-12T06:15:57;99296.69;;;2.82;100.00
4814;BME280;15375;48.540;9.268;2023-02-12T06:18:23;99300.63;;;2.85;100.00
4814;BME280;15375;48.540;9.268;2023-02-12T06:20:48;99297.16;;;2.93;100.00
4814;BME280;15375;48.540;9.268;2023-02-12T06:23:13;99296.19;;;2.97;100.00
4814;BME280;15375;48.540;9.268;2023-02-12T06:25:39;99301.56;;;3.06;100.00
4814;BME280;15375;48.540;9.268;2023-02-12T06:28:04;99306.16;;;3.05;100.00
4814;BME280;15375;48.540;9.268;2023-02-12T06:30:29;99305.38;;;3.05;100.00
4814;BME280;15375;48.540;9.268;2023-02-12T06:32:56;99292.38;;;2.90;100.00
4814;BME280;15375;48.540;9.268;2023-02-12T06:35:21;99287.66;;;2.78;100.00
4814;BME280;15375;48.540;9.268;2023-02-12T06:37:47;99308.56;;;2.90;100.00
4814;BME280;15375;48.540;9.268;2023-02-12T06:40:12;99288.13;;;2.80;100.00
4814;BME280;15375;48.540;9.268;2023-02-12T06:42:38;99309.38;;;2.82;100.00
4814;BME280;15375;48.540;9.268;2023-02-12T06:45:03;99317.78;;;2.80;100.00
4814;BME280;15375;48.540;9.268;2023-02-12T06:47:29;99316.38;;;2.74;100.00
4814;BME280;15375;48.540;9.268;2023-02-12T06:49:54;99309.38;;;2.65;100.00
4814;BME280;15375;48.540;9.268;2023-02-12T06:52:19;99316.66;;;2.55;100.00
4814;BME280;15375;48.540;9.268;2023-02-12T06:54:45;99309.69;;;2.46;100.00
4814;BME280;15375;48.540;9.268;2023-02-12T06:57:11;99306.97;;;2.37;100.00
4814;BME280;15375;48.540;9.268;2023-02-12T06:59:36;99320.31;;;2.34;100.00
4814;BME280;15375;48.540;9.268;2023-02-12T07:02:01;99321.69;;;2.23;100.00
4814;BME280;15375;48.540;9.268;2023-02-12T07:04:27;99328.03;;;2.27;100.00
4814;BME280;15375;48.540;9.268;2023-02-12T07:06:52;99334.84;;;2.24;100.00
4814;BME280;15375;48.540;9.268;2023-02-12T07:09:17;99336.59;;;2.37;100.00
4814;BME280;15375;48.540;9.268;2023-02-12T07:11:43;99338.34;;;2.42;100.00
4814;BME280;15375;48.540;9.268;2023-02-12T07:14:13;99319.97;;;2.35;100.00
4814;BME280;15375;48.540;9.268;2023-02-12T07:16:39;99335.34;;;2.52;100.00
4814;BME280;15375;48.540;9.268;2023-02-12T07:19:04;99342.47;;;2.48;100.00
4814;BME280;15375;48.540;9.268;2023-02-12T07:21:29;99337.56;;;2.33;100.00
4814;BME280;15375;48.540;9.268;2023-02-12T07:23:56;99345.97;;;2.31;100.00
4814;BME280;15375;48.540;9.268;2023-02-12T07:26:21;99326.31;;;2.39;100.00
4814;BME280;15375;48.540;9.268;2023-02-12T07:28:48;99347.09;;;2.73;100.00
4814;BME280;15375;48.540;9.268;2023-02-12T07:31:17;99354.38;;;2.90;100.00
4814;BME280;15375;48.540;9.268;2023-02-12T07:33:43;99353.44;;;2.94;100.00
4814;BME280;15375;48.540;9.268;2023-02-12T07:36:11;99345.34;;;3.11;100.00
4814;BME280;15375;48.540;9.268;2023-02-12T07:38:37;99323.75;;;3.20;100.00
4814;BME280;15375;48.540;9.268;2023-02-12T07:41:27;99342.78;;;3.23;100.00
4814;BME280;15375;48.540;9.268;2023-02-12T07:43:58;99337.88;;;3.17;100.00
4814;BME280;15375;48.540;9.268;2023-02-12T07:46:30;99326.81;;;3.01;100.00
4814;BME280;15375;48.540;9.268;2023-02-12T07:48:59;99346.91;;;3.12;100.00
4814;BME280;15375;48.540;9.268;2023-02-12T07:51:25;99331.69;;;3.08;100.00
4814;BME280;15375;48.540;9.268;2023-02-12T07:53:51;99349.72;;;3.33;100.00
4814;BME280;15375;48.540;9.268;2023-02-12T07:58:45;99347.53;;;3.27;100.00
4814;BME280;15375;48.540;9.268;2023-02-12T08:01:14;99337.06;;;3.25;100.00
4814;BME280;15375;48.540;9.268;2023-02-12T08:03:39;99326.25;;;3.25;100.00
4814;BME280;15375;48.540;9.268;2023-02-12T08:06:28;99327.69;;;3.22;100.00
4814;BME280;15375;48.540;9.268;2023-02-12T08:08:57;99341.84;;;3.19;100.00
4814;BME280;15375;48.540;9.268;2023-02-12T08:11:23;99307.75;;;2.98;100.00
4814;BME280;15375;48.540;9.268;2023-02-12T08:13:50;99335.81;;;3.05;100.00
4814;BME280;15375;48.540;9.268;2023-02-12T08:16:18;99344.03;;;3.35;100.00
4814;BME280;15375;48.540;9.268;2023-02-12T08:18:44;99347.63;;;3.56;100.00
4814;BME280;15375;48.540;9.268;2023-02-12T08:21:12;99328.84;;;3.68;100.00
4814;BME280;15375;48.540;9.268;2023-02-12T08:23:38;99343.00;;;4.03;100.00
4814;BME280;15375;48.540;9.268;2023-02-12T08:26:12;99321.53;;;3.77;100.00
4814;BME280;15375;48.540;9.268;2023-02-12T08:28:42;99324.53;;;3.75;100.00
4814;BME280;15375;48.540;9.268;2023-02-12T08:31:11;99340.59;;;4.01;100.00
4814;BME280;15375;48.540;9.268;2023-02-12T08:33:36;99328.34;;;4.12;100.00
4814;BME280;15375;48.540;9.268;2023-02-12T08:36:04;99322.22;;;4.24;100.00
4814;BME280;15375;48.540;9.268;2023-02-12T08:38:31;99317.03;;;4.39;100.00
4814;BME280;15375;48.540;9.268;2023-02-12T08:41:00;99310.34;;;4.45;100.00
4814;BME280;15375;48.540;9.268;2023-02-12T08:43:26;99329.31;;;4.78;100.00
4814;BME280;15375;48.540;9.268;2023-02-12T08:45:51;99305.63;;;4.75;100.00
4814;BME280;15375;48.540;9.268;2023-02-12T08:48:17;99318.66;;;4.94;100.00
4814;BME280;15375;48.540;9.268;2023-02-12T08:50:45;99301.31;;;4.95;100.00
4814;BME280;15375;48.540;9.268;2023-02-12T08:53:10;99295.91;;;4.95;100.00
4814;BME280;15375;48.540;9.268;2023-02-12T08:55:35;99317.06;;;5.13;100.00
4814;BME280;15375;48.540;9.268;2023-02-12T08:58:01;99302.09;;;5.16;100.00
4814;BME280;15375;48.540;9.268;2023-02-12T09:00:27;99301.16;;;5.12;100.00
4814;BME280;15375;48.540;9.268;2023-02-12T09:02:56;99317.09;;;5.26;100.00
4814;BME280;15375;48.540;9.268;2023-02-12T09:05:21;99291.69;;;5.06;100.00
4814;BME280;15375;48.540;9.268;2023-02-12T09:07:46;99309.41;;;5.15;100.00
4814;BME280;15375;48.540;9.268;2023-02-12T09:10:12;99309.97;;;5.21;100.00
4814;BME280;15375;48.540;9.268;2023-02-12T09:12:38;99303.66;;;5.17;100.00
4814;BME280;15375;48.540;9.268;2023-02-12T09:15:03;99304.59;;;5.33;100.00
4814;BME280;15375;48.540;9.268;2023-02-12T09:17:29;99313.88;;;5.44;100.00
4814;BME280;15375;48.540;9.268;2023-02-12T09:19:54;99307.56;;;5.52;100.00
4814;BME280;15375;48.540;9.268;2023-02-12T09:22:20;99296.75;;;5.64;100.00
4814;BME280;15375;48.540;9.268;2023-02-12T09:24:45;99302.41;;;5.71;100.00
4814;BME280;15375;48.540;9.268;2023-02-12T09:27:10;99311.03;;;5.86;100.00
4814;BME280;15375;48.540;9.268;2023-02-12T09:29:36;99282.44;;;5.76;100.00
4814;BME280;15375;48.540;9.268;2023-02-12T09:32:01;99304.81;;;5.97;100.00
4814;BME280;15375;48.540;9.268;2023-02-12T09:34:29;99299.97;;;6.03;98.57
4814;BME280;15375;48.540;9.268;2023-02-12T09:36:55;99308.31;;;6.10;98.79
4814;BME280;15375;48.540;9.268;2023-02-12T09:39:20;99317.34;;;6.26;98.68
4814;BME280;15375;48.540;9.268;2023-02-12T09:42:16;99319.91;;;6.47;99.32
4814;BME280;15375;48.540;9.268;2023-02-12T09:50:47;99319.16;;;7.01;96.89
4814;BME280;15375;48.540;9.268;2023-02-12T09:53:19;99311.28;;;6.96;97.70
4814;BME280;15375;48.540;9.268;2023-02-12T09:55:46;99311.59;;;7.07;97.34
4814;BME280;15375;48.540;9.268;2023-02-12T09:58:28;99312.31;;;7.20;96.88
4814;BME280;15375;48.540;9.268;2023-02-12T10:00:55;99311.34;;;7.28;96.50
4814;BME280;15375;48.540;9.268;2023-02-12T10:03:21;99293.25;;;7.32;94.62
4814;BME280;15375;48.540;9.268;2023-02-12T10:05:50;99293.00;;;7.37;94.91
4814;BME280;15375;48.540;9.268;2023-02-12T10:27:36;99317.88;;;8.01;93.10
4814;BME280;15375;48.540;9.268;2023-02-12T10:30:30;99308.31;;;8.07;90.49
4814;BME280;15375;48.540;9.268;2023-02-12T10:33:04;99318.56;;;8.29;89.39
4814;BME280;15375;48.540;9.268;2023-02-12T10:35:31;99300.28;;;7.95;89.76
4814;BME280;15375;48.540;9.268;2023-02-12T10:38:03;99308.22;;;8.19;88.80
4814;BME280;15375;48.540;9.268;2023-02-12T10:40:33;99298.28;;;8.43;88.03
4814;BME280;15375;48.540;9.268;2023-02-12T10:43:00;99307.28;;;8.27;88.72
4814;BME280;15375;48.540;9.268;2023-02-12T10:45:33;99295.28;;;8.48;88.73
4814;BME280;15375;48.540;9.268;2023-02-12T10:48:24;99290.28;;;8.69;87.24
4814;BME280;15375;48.540;9.268;2023-02-12T10:53:37;99278.25;;;8.89;83.89
4814;BME280;15375;48.540;9.268;2023-02-12T10:58:58;99260.88;;;8.74;84.86
4814;BME280;15375;48.540;9.268;2023-02-12T11:01:33;99281.06;;;8.73;85.02
4814;BME280;15375;48.540;9.268;2023-02-12T11:07:05;99274.91;;;8.76;85.96
4814;BME280;15375;48.540;9.268;2023-02-12T11:09:36;99267.69;;;8.65;86.06
4814;BME280;15375;48.540;9.268;2023-02-12T11:12:23;99269.81;;;8.94;86.03
4814;BME280;15375;48.540;9.268;2023-02-12T11:14:55;99266.09;;;8.83;84.56
4814;BME280;15375;48.540;9.268;2023-02-12T11:17:29;99267.31;;;8.85;84.50
4814;BME280;15375;48.540;9.268;2023-02-12T11:20:07;99262.88;;;8.77;86.38
4814;BME280;15375;48.540;9.268;2023-02-12T11:22:58;99246.09;;;9.14;84.34
4814;BME280;15375;48.540;9.268;2023-02-12T11:25:28;99255.91;;;9.63;82.51
4814;BME280;15375;48.540;9.268;2023-02-12T11:28:15;99242.50;;;9.78;80.68
4814;BME280;15375;48.540;9.268;2023-02-12T11:33:39;99243.84;;;9.42;81.50
4814;BME280;15375;48.540;9.268;2023-02-12T11:36:23;99252.28;;;9.56;81.68
4814;BME280;15375;48.540;9.268;2023-02-12T11:38:54;99257.00;;;9.59;82.38
4814;BME280;15375;48.540;9.268;2023-02-12T11:43:55;99252.41;;;9.40;82.42
4814;BME280;15375;48.540;9.268;2023-02-12T11:46:23;99248.53;;;9.64;81.40
4814;BME280;15375;48.540;9.268;2023-02-12T11:48:50;99249.91;;;10.03;80.32
4814;BME280;15375;48.540;9.268;2023-02-12T11:51:23;99245.00;;;10.39;77.82
4814;BME280;15375;48.540;9.268;2023-02-12T11:53:51;99243.31;;;10.60;76.11
4814;BME280;15375;48.540;9.268;2023-02-12T11:56:18;99244.13;;;9.82;77.71
4814;BME280;15375;48.540;9.268;2023-02-12T11:58:45;99240.00;;;9.43;80.23
4814;BME280;15375;48.540;9.268;2023-02-12T12:01:19;99245.53;;;9.73;81.18
4814;BME280;15375;48.540;9.268;2023-02-12T12:04:13;99236.56;;;9.72;80.12
4814;BME280;15375;48.540;9.268;2023-02-12T12:06:45;99243.00;;;9.60;81.42
4814;BME280;15375;48.540;9.268;2023-02-12T12:09:19;99239.63;;;9.44;82.51
4814;BME280;15375;48.540;9.268;2023-02-12T12:12:11;99235.97;;;9.14;83.05
4814;BME280;15375;48.540;9.268;2023-02-12T12:14:48;99247.44;;;9.04;84.56
4814;BME280;15375;48.540;9.268;2023-02-12T12:17:44;99237.97;;;9.17;84.94
4814;BME280;15375;48.540;9.268;2023-02-12T12:20:40;99203.19;;;9.30;82.70
4814;BME280;15375;48.540;9.268;2023-02-12T12:23:15;99241.38;;;9.56;81.85
4814;BME280;15375;48.540;9.268;2023-02-12T12:25:50;99237.78;;;9.29;82.93
4814;BME280;15375;48.540;9.268;2023-02-12T12:28:43;99237.72;;;9.03;85.12
4814;BME280;15375;48.540;9.268;2023-02-12T12:34:21;99239.16;;;9.61;82.59
4814;BME280;15375;48.540;9.268;2023-02-12T12:45:13;99215.94;;;10.86;74.94
4814;BME280;15375;48.540;9.268;2023-02-12T12:48:12;99216.94;;;11.05;72.84
4814;BME280;15375;48.540;9.268;2023-02-12T13:04:36;99202.47;;;10.67;74.50
4814;BME280;15375;48.540;9.268;2023-02-12T13:15:24;99192.72;;;11.03;73.45
4814;BME280;15375;48.540;9.268;2023-02-12T13:20:45;99196.88;;;11.30;72.33
4814;BME280;15375;48.540;9.268;2023-02-12T13:28:54;99173.00;;;10.83;72.62
4814;BME280;15375;48.540;9.268;2023-02-12T13:31:23;99187.78;;;10.79;74.13
4814;BME280;15375;48.540;9.268;2023-02-12T13:33:55;99199.41;;;10.72;76.35
4814;BME280;15375;48.540;9.268;2023-02-12T13:36:22;99192.31;;;10.64;75.50
4814;BME280;15375;48.540;9.268;2023-02-12T13:41:20;99175.56;;;10.66;74.69
4814;BME280;15375;48.540;9.268;2023-02-12T13:49:54;99177.94;;;10.38;77.21
4814;BME280;15375;48.540;9.268;2023-02-12T13:53:14;99187.28;;;10.37;77.52
4814;BME280;15375;48.540;9.268;2023-02-12T13:55:38;99157.28;;;10.07;78.14
4814;BME280;15375;48.540;9.268;2023-02-12T14:01:06;99173.31;;;9.86;80.49
4814;BME280;15375;48.540;9.268;2023-02-12T14:03:33;99173.91;;;9.98;79.68
4814;BME280;15375;48.540;9.268;2023-02-12T14:06:13;99182.34;;;9.90;80.41
4814;BME280;15375;48.540;9.268;2023-02-12T14:08:41;99178.69;;;9.79;80.92
4814;BME280;15375;48.540;9.268;2023-02-12T14:11:20;99156.41;;;9.73;80.88
4814;BME280;15375;48.540;9.268;2023-02-12T14:28:06;99176.56;;;9.42;83.51
4814;BME280;15375;48.540;9.268;2023-02-12T14:30:37;99154.97;;;9.30;83.81
4814;BME280;15375;48.540;9.268;2023-02-12T14:35:36;99152.06;;;8.97;86.75
4814;BME280;15375;48.540;9.268;2023-02-12T14:46:53;99161.69;;;8.91;86.95
4814;BME280;15375;48.540;9.268;2023-02-12T14:51:54;99155.25;;;8.80;88.00
4814;BME280;15375;48.540;9.268;2023-02-12T14:54:36;99152.47;;;8.76;87.33
4814;BME280;15375;48.540;9.268;2023-02-12T14:57:08;99150.50;;;8.73;86.81
4814;BME280;15375;48.540;9.268;2023-02-12T14:59:39;99125.03;;;8.43;88.43
4814;BME280;15375;48.540;9.268;2023-02-12T15:02:12;99141.25;;;8.59;88.86
4814;BME280;15375;48.540;9.268;2023-02-12T15:04:40;99138.41;;;8.52;88.40
4814;BME280;15375;48.540;9.268;2023-02-12T15:07:13;99151.53;;;8.69;87.61
4814;BME280;15375;48.540;9.268;2023-02-12T15:09:47;99140.06;;;8.79;87.67
4814;BME280;15375;48.540;9.268;2023-02-12T15:12:43;99142.47;;;8.61;87.41
4814;BME280;15375;48.540;9.268;2023-02-12T15:15:22;99134.56;;;8.53;88.87
4814;BME280;15375;48.540;9.268;2023-02-12T15:23:39;99143.69;;;8.64;87.63
4814;BME280;15375;48.540;9.268;2023-02-12T15:26:08;99148.91;;;8.72;88.63
4814;BME280;15375;48.540;9.268;2023-02-12T15:28:36;99146.25;;;8.76;87.33
4814;BME280;15375;48.540;9.268;2023-02-12T15:31:04;99148.97;;;8.76;87.17
4814;BME280;15375;48.540;9.268;2023-02-12T15:33:38;99133.66;;;8.68;87.03
4814;BME280;15375;48.540;9.268;2023-02-12T15:36:07;99128.31;;;8.52;87.51
4814;BME280;15375;48.540;9.268;2023-02-12T15:38:37;99138.53;;;8.59;87.96
4814;BME280;15375;48.540;9.268;2023-02-12T15:41:04;99128.19;;;8.45;88.33
4814;BME280;15375;48.540;9.268;2023-02-12T15:43:32;99129.97;;;8.38;88.24
4814;BME280;15375;48.540;9.268;2023-02-12T15:46:04;99156.81;;;8.39;89.22
4814;BME280;15375;48.540;9.268;2023-02-12T15:48:35;99148.13;;;8.33;90.53
4814;BME280;15375;48.540;9.268;2023-02-12T15:51:15;99144.22;;;8.31;91.07
4814;BME280;15375;48.540;9.268;2023-02-12T15:53:42;99122.06;;;8.13;91.05
4814;BME280;15375;48.540;9.268;2023-02-12T15:56:13;99143.09;;;8.16;91.80
4814;BME280;15375;48.540;9.268;2023-02-12T15:58:54;99134.41;;;8.07;92.08
4814;BME280;15375;48.540;9.268;2023-02-12T16:01:23;99150.69;;;8.07;92.78
4814;BME280;15375;48.540;9.268;2023-02-12T16:03:51;99150.56;;;8.00;93.04
4814;BME280;15375;48.540;9.268;2023-02-12T16:06:18;99153.09;;;7.93;93.67
4814;BME280;15375;48.540;9.268;2023-02-12T16:08:52;99151.81;;;7.87;93.57
4814;BME280;15375;48.540;9.268;2023-02-12T16:11:21;99154.44;;;7.84;94.60
4814;BME280;15375;48.540;9.268;2023-02-12T16:13:53;99146.78;;;7.70;94.65
4814;BME280;15375;48.540;9.268;2023-02-12T16:16:23;99148.09;;;7.60;95.81
4814;BME280;15375;48.540;9.268;2023-02-12T16:21:37;99169.59;;;7.50;96.78